Uintah, Utah
Current Conditions -  °F | °C
As of 6:58 PM on Friday 24 Oct 2014 (Local Time) from KHIF Reporting Station
Clear Clear  
Wind Chill: 67°   Ceiling: Unl
Heat Index: 67°   Visibility: 10mi
Dew Point: 38°   Wind: 3mph
Humidity: 35%   Direction: 360°N
Pressure: 30.11"   Gusts: NA
Location:  41.162°N, 111.972°W
Report Text: KHIF 250058Z AUTO 36003KT 10SM CLR 19/03 A3011 RMK AO2 SLP162 T01920032
Loading
Personal Weather Stations






























Interactive Weather Map
Tropical Storm Tracking
New forecast layout! Learn more

10-Day Weather Forecast

Advertisements
Track Severe Weather on mobile